Time;durP1;ratioP1;P1;durP2;ratioP2;P2;SDS_P1;SDS_P2;PMS_P1;PMS_P2;Temp;Humidity;BMP_temperature;BMP_pressure;BME280_temperature;BME280_humidity;BME280_pressure;Samples;Min_cycle;Max_cycle;Signal;HPM_P1;HPM_P2
2023/09/02 00:00:07;;;;;;;3.72;0.70;;;20.90;74.60;;;;;;2483304;55;21935;-71
2023/09/02 00:02:47;;;;;;;1.65;0.60;;;20.90;74.70;;;;;;2484605;55;21437;-70
2023/09/02 00:05:26;;;;;;;1.42;0.62;;;20.90;74.70;;;;;;2484879;55;20957;-70
2023/09/02 00:07:52;;;;;;;1.05;0.50;;;20.80;74.10;;;;;;2483703;55;20974;-70
2023/09/02 00:10:20;;;;;;;4.25;0.73;;;20.80;74.70;;;;;;2484940;55;21038;-69
2023/09/02 00:12:46;;;;;;;2.30;0.70;;;20.80;74.70;;;;;;2257282;56;20963;-69
2023/09/02 00:15:16;;;;;;;2.10;0.70;;;20.70;74.60;;;;;;2481731;55;21071;-70
2023/09/02 00:17:44;;;;;;;0.75;0.40;;;20.70;74.60;;;;;;2237239;56;21046;-70
2023/09/02 00:20:20;;;;;;;1.77;0.70;;;20.70;74.60;;;;;;2257448;56;20942;-73
2023/09/02 00:22:49;;;;;;;3.17;0.80;;;20.60;74.60;;;;;;2483538;55;20933;-69
2023/09/02 00:25:15;;;;;;;1.23;0.60;;;20.60;74.70;;;;;;2485268;55;20979;-70
2023/09/02 00:27:44;;;;;;;1.65;0.62;;;20.60;74.80;;;;;;2256836;56;21092;-70
2023/09/02 00:30:11;;;;;;;1.83;0.60;;;20.50;74.70;;;;;;2482879;55;21449;-73
2023/09/02 00:32:38;;;;;;;1.33;0.52;;;20.50;74.70;;;;;;2485842;55;21002;-70
2023/09/02 00:35:04;;;;;;;1.58;0.62;;;20.50;74.80;;;;;;2484346;55;21085;-71
2023/09/02 00:37:32;;;;;;;2.35;0.70;;;20.50;74.80;;;;;;2257515;56;21026;-70
2023/09/02 00:40:00;;;;;;;2.12;0.68;;;20.40;74.80;;;;;;2483825;55;20957;-72
2023/09/02 00:42:26;;;;;;;2.90;0.70;;;20.40;74.80;;;;;;2236688;56;20980;-71
2023/09/02 00:44:57;;;;;;;1.90;0.60;;;20.40;74.80;;;;;;2478887;55;20991;-71
2023/09/02 00:47:24;;;;;;;2.37;0.90;;;20.40;74.90;;;;;;2500672;55;21026;-69
2023/09/02 00:49:51;;;;;;;1.35;0.70;;;20.30;74.80;;;;;;2283036;56;20974;-71
2023/09/02 00:52:18;;;;;;;2.28;1.05;;;20.30;74.90;;;;;;2515572;55;20983;-69
2023/09/02 00:54:46;;;;;;;1.75;0.70;;;20.30;74.90;;;;;;2256244;56;20962;-71
2023/09/02 00:57:12;;;;;;;1.37;0.60;;;20.30;75.00;;;;;;2257233;56;20978;-72
2023/09/02 00:59:39;;;;;;;1.40;0.57;;;20.30;75.00;;;;;;2484301;55;21094;-69
2023/09/02 01:02:05;;;;;;;5.03;0.80;;;20.20;75.00;;;;;;2495797;55;21506;-70
2023/09/02 01:04:32;;;;;;;1.70;0.70;;;20.30;75.00;;;;;;2485471;55;21458;-70
2023/09/02 01:06:59;;;;;;;1.45;0.57;;;20.20;75.00;;;;;;2490749;55;21046;-70
2023/09/02 01:09:26;;;;;;;3.03;0.73;;;20.20;75.00;;;;;;2485396;55;21007;-69
2023/09/02 01:11:52;;;;;;;1.80;0.80;;;20.20;75.00;;;;;;2484343;55;20969;-68
2023/09/02 01:14:20;;;;;;;1.85;0.70;;;20.20;75.00;;;;;;2458095;55;20992;-71
2023/09/02 01:16:48;;;;;;;4.22;0.80;;;20.10;74.90;;;;;;2468473;55;21054;-70
2023/09/02 01:19:17;;;;;;;1.87;0.80;;;20.10;75.00;;;;;;2472406;55;21503;-69
2023/09/02 01:24:36;;;;;;;1.30;0.68;;;20.10;75.10;;;;;;2511611;55;20943;-70
2023/09/02 01:27:25;;;;;;;1.40;0.60;;;20.10;74.20;;;;;;2510912;55;21802;-70
2023/09/02 01:30:19;;;;;;;1.50;0.62;;;20.10;74.20;;;;;;2511056;54;20986;-70
2023/09/02 01:32:46;;;;;;;2.17;0.60;;;20.10;74.20;;;;;;2256141;56;21045;-71
2023/09/02 01:35:18;;;;;;;2.58;0.70;;;20.10;75.20;;;;;;2484840;55;20969;-71
2023/09/02 01:37:45;;;;;;;1.75;0.60;;;20.00;75.00;;;;;;2485524;55;21802;-70
2023/09/02 01:40:25;;;;;;;1.45;0.60;;;20.00;75.10;;;;;;2485320;55;21004;-70
2023/09/02 01:42:57;;;;;;;1.83;0.68;;;20.00;75.00;;;;;;2484403;55;21529;-69
2023/09/02 01:45:30;;;;;;;3.25;1.00;;;19.90;74.90;;;;;;2485326;55;21016;-69
2023/09/02 01:47:57;;;;;;;2.28;0.82;;;19.90;75.10;;;;;;2491561;54;20990;-70
2023/09/02 01:50:26;;;;;;;2.17;0.75;;;19.90;75.40;;;;;;2484950;55;20935;-70
2023/09/02 01:52:54;;;;;;;2.00;0.70;;;19.90;75.40;;;;;;2484421;55;21053;-70
2023/09/02 01:55:21;;;;;;;1.92;0.70;;;19.90;75.50;;;;;;2484777;55;21399;-70
2023/09/02 01:57:49;;;;;;;1.73;0.75;;;19.90;75.50;;;;;;2484939;55;20950;-70
2023/09/02 02:00:15;;;;;;;1.75;0.70;;;19.90;75.40;;;;;;2485082;55;20979;-70
2023/09/02 02:02:46;;;;;;;1.83;0.70;;;19.90;75.40;;;;;;2484369;55;20983;-71
2023/09/02 02:05:13;;;;;;;2.08;0.70;;;19.90;75.20;;;;;;2515780;55;21030;-69
2023/09/02 02:07:42;;;;;;;2.97;0.80;;;19.80;75.40;;;;;;2287868;55;20938;-70
2023/09/02 02:10:11;;;;;;;2.10;0.80;;;19.80;75.30;;;;;;2521832;55;20911;-70
2023/09/02 02:12:41;;;;;;;2.72;0.80;;;19.80;75.00;;;;;;2522586;55;20934;-70
2023/09/02 02:15:11;;;;;;;1.73;0.80;;;19.80;74.90;;;;;;2521027;55;20946;-70
2023/09/02 02:17:39;;;;;;;2.65;0.90;;;19.80;75.10;;;;;;2288490;55;21006;-70
2023/09/02 02:20:06;;;;;;;1.87;0.80;;;19.70;74.90;;;;;;2492162;55;21023;-69
2023/09/02 02:22:34;;;;;;;2.40;1.00;;;19.70;75.00;;;;;;2520384;55;21037;-69
2023/09/02 02:25:01;;;;;;;1.83;0.90;;;19.70;75.10;;;;;;2287612;55;20938;-71
2023/09/02 02:27:59;;;;;;;3.37;0.90;;;19.70;75.20;;;;;;2523161;55;21049;-70
2023/09/02 02:30:26;;;;;;;1.62;0.62;;;19.70;74.30;;;;;;2521926;55;20950;-70
2023/09/02 02:32:52;;;;;;;2.28;0.80;;;19.70;75.20;;;;;;2290372;55;20942;-70
2023/09/02 02:35:23;;;;;;;2.12;0.93;;;19.60;75.10;;;;;;2288599;55;20954;-70
2023/09/02 02:37:52;;;;;;;3.58;0.70;;;19.60;75.20;;;;;;2522175;55;21447;-71
2023/09/02 02:40:18;;;;;;;2.03;0.95;;;19.60;75.20;;;;;;2522427;55;21010;-70
2023/09/02 02:42:45;;;;;;;1.65;0.77;;;19.60;75.20;;;;;;2513139;54;21015;-71
2023/09/02 02:45:11;;;;;;;2.22;0.88;;;19.60;75.30;;;;;;2498128;55;20966;-71
2023/09/02 02:47:38;;;;;;;2.12;0.80;;;19.50;75.20;;;;;;2288061;56;21142;-70
2023/09/02 02:50:05;;;;;;;2.35;0.90;;;19.50;75.20;;;;;;2521840;55;20978;-72
2023/09/02 02:52:32;;;;;;;1.92;0.77;;;19.50;75.20;;;;;;2522583;54;21523;-70
2023/09/02 02:54:59;;;;;;;2.10;0.80;;;19.50;75.20;;;;;;2518918;54;21040;-70
2023/09/02 02:57:39;;;;;;;2.78;0.70;;;19.50;75.20;;;;;;2520329;55;21849;-70
2023/09/02 03:00:09;;;;;;;2.62;0.62;;;19.50;74.60;;;;;;2521396;55;21001;-67
2023/09/02 03:02:36;;;;;;;1.55;0.70;;;19.40;75.20;;;;;;2521906;55;21034;-69
2023/09/02 03:05:07;;;;;;;2.15;0.85;;;19.40;75.20;;;;;;2521735;55;20954;-69
2023/09/02 03:07:49;;;;;;;1.50;0.70;;;19.40;75.30;;;;;;2517502;54;20950;-70
2023/09/02 03:10:16;;;;;;;2.20;0.60;;;19.40;74.50;;;;;;2466003;55;20971;-70
2023/09/02 03:12:42;;;;;;;1.23;0.57;;;19.40;75.20;;;;;;2521487;55;20958;-69
2023/09/02 03:15:09;;;;;;;1.75;0.75;;;19.40;75.30;;;;;;2517440;54;21536;-71
2023/09/02 03:17:35;;;;;;;1.67;0.60;;;19.40;75.40;;;;;;2520530;54;21002;-70
2023/09/02 03:20:02;;;;;;;2.65;0.80;;;19.40;75.40;;;;;;2282073;56;21070;-70
2023/09/02 03:22:29;;;;;;;2.05;0.90;;;19.30;75.20;;;;;;2502448;55;20947;-70
2023/09/02 03:24:55;;;;;;;2.78;0.73;;;19.30;75.20;;;;;;2521417;55;21010;-69
2023/09/02 03:27:23;;;;;;;1.92;0.70;;;19.30;75.30;;;;;;2522090;55;21066;-68
2023/09/02 03:29:49;;;;;;;2.03;0.77;;;19.30;75.30;;;;;;2522141;55;20958;-69
2023/09/02 03:32:16;;;;;;;1.73;0.85;;;19.30;75.30;;;;;;2521965;55;21022;-71
2023/09/02 03:34:43;;;;;;;4.47;0.95;;;19.30;75.30;;;;;;2522132;55;20977;-70
2023/09/02 03:37:09;;;;;;;2.05;0.80;;;19.30;75.40;;;;;;2521320;55;21688;-70
2023/09/02 03:39:36;;;;;;;1.87;0.80;;;19.30;75.40;;;;;;2522124;55;21054;-70
2023/09/02 03:42:03;;;;;;;1.60;0.80;;;19.30;75.40;;;;;;2522056;55;21007;-70
2023/09/02 03:44:31;;;;;;;3.83;0.90;;;19.30;75.40;;;;;;2520948;55;20974;-70
2023/09/02 03:46:58;;;;;;;5.45;0.88;;;19.30;75.20;;;;;;2522442;55;21073;-69
2023/09/02 03:49:25;;;;;;;2.53;0.68;;;19.20;75.30;;;;;;2522404;55;20947;-69
2023/09/02 03:52:01;;;;;;;1.65;0.80;;;19.20;75.30;;;;;;2522037;55;21057;-70
2023/09/02 03:54:28;;;;;;;1.85;0.70;;;19.20;74.70;;;;;;2522159;55;20962;-70
2023/09/02 03:56:55;;;;;;;1.98;0.90;;;19.20;75.20;;;;;;2522057;55;20975;-70
2023/09/02 03:59:29;;;;;;;1.42;0.68;;;19.20;75.20;;;;;;2288154;55;20932;-71
2023/09/02 04:02:01;;;;;;;2.40;0.80;;;19.20;75.00;;;;;;2517679;55;20960;-69
2023/09/02 04:04:28;;;;;;;1.62;0.73;;;19.10;74.90;;;;;;2521937;55;20985;-71
2023/09/02 04:06:54;;;;;;;2.28;0.90;;;19.10;75.00;;;;;;2286416;55;21019;-70
2023/09/02 04:09:22;;;;;;;1.77;0.62;;;19.10;75.10;;;;;;2521060;54;21036;-70
2023/09/02 04:11:49;;;;;;;2.67;0.77;;;19.10;75.20;;;;;;2518938;54;20982;-70
2023/09/02 04:14:18;;;;;;;2.12;0.90;;;19.10;75.20;;;;;;2487759;55;20938;-70
2023/09/02 04:16:47;;;;;;;2.20;0.68;;;19.10;75.20;;;;;;2521705;55;21491;-70
2023/09/02 04:19:18;;;;;;;3.22;0.68;;;19.00;75.10;;;;;;2521693;54;20965;-71
2023/09/02 04:22:05;;;;;;;2.22;0.80;;;19.00;75.20;;;;;;2496945;54;21138;-70
2023/09/02 04:24:41;;;;;;;2.15;0.75;;;19.00;75.20;;;;;;2281012;56;21831;-70
2023/09/02 04:27:09;;;;;;;2.17;0.80;;;19.00;75.20;;;;;;2288917;55;20960;-71
2023/09/02 04:29:35;;;;;;;3.85;0.82;;;19.00;75.20;;;;;;2493836;55;21447;-70
2023/09/02 04:32:09;;;;;;;2.20;0.80;;;18.90;75.10;;;;;;2515938;54;20936;-71
2023/09/02 04:34:36;;;;;;;2.50;1.02;;;19.00;75.10;;;;;;2520363;55;20918;-70
2023/09/02 04:37:03;;;;;;;2.20;0.80;;;18.90;75.00;;;;;;2292348;55;21442;-69
2023/09/02 04:39:33;;;;;;;2.25;0.90;;;18.90;75.00;;;;;;2518716;54;20947;-70
2023/09/02 04:42:03;;;;;;;2.53;0.97;;;18.90;75.10;;;;;;2522589;55;20915;-70
2023/09/02 04:44:34;;;;;;;2.62;0.90;;;18.90;75.20;;;;;;2517793;54;21357;-70
2023/09/02 04:47:02;;;;;;;1.83;0.70;;;18.90;75.20;;;;;;2518803;55;21938;-70
2023/09/02 04:49:29;;;;;;;1.65;0.75;;;18.90;75.10;;;;;;2518039;54;21048;-70
2023/09/02 04:51:59;;;;;;;1.85;0.80;;;18.80;75.10;;;;;;2518392;54;20946;-70
2023/09/02 04:54:32;;;;;;;1.98;0.77;;;18.80;74.90;;;;;;2515507;54;20967;-69
2023/09/02 04:57:00;;;;;;;1.90;0.90;;;18.80;74.90;;;;;;2492853;55;20957;-70
2023/09/02 04:59:26;;;;;;;1.92;0.90;;;18.80;75.10;;;;;;2522554;55;20971;-70
2023/09/02 05:01:53;;;;;;;2.20;0.70;;;18.80;75.10;;;;;;2287568;55;21906;-70
2023/09/02 05:04:22;;;;;;;1.80;0.80;;;18.80;75.20;;;;;;2522521;55;20982;-69
2023/09/02 05:06:49;;;;;;;2.33;0.88;;;18.70;75.10;;;;;;2522697;55;20939;-70
2023/09/02 05:09:17;;;;;;;2.90;0.73;;;18.70;75.00;;;;;;2522182;55;20934;-70
2023/09/02 05:11:43;;;;;;;2.20;0.77;;;18.70;75.00;;;;;;2522067;55;20946;-70
2023/09/02 05:14:11;;;;;;;3.95;0.93;;;18.70;75.00;;;;;;2522317;55;20954;-70
2023/09/02 05:16:39;;;;;;;2.47;0.80;;;18.70;75.10;;;;;;2522253;55;20946;-67
2023/09/02 05:19:08;;;;;;;2.92;1.10;;;18.70;75.20;;;;;;2521640;55;20994;-69
2023/09/02 05:21:46;;;;;;;2.15;0.82;;;18.70;75.20;;;;;;2522655;55;21014;-70
2023/09/02 05:24:13;;;;;;;2.10;0.70;;;18.60;74.70;;;;;;2520548;55;21110;-71
2023/09/02 05:26:40;;;;;;;2.58;0.85;;;18.60;75.10;;;;;;2522485;55;20962;-70
2023/09/02 05:29:06;;;;;;;1.90;0.80;;;18.60;75.10;;;;;;2521644;55;21396;-68
2023/09/02 05:31:33;;;;;;;2.30;0.95;;;18.60;75.20;;;;;;2517888;54;21032;-70
2023/09/02 05:34:01;;;;;;;2.47;1.00;;;18.60;75.30;;;;;;2520813;55;20970;-70
2023/09/02 05:36:27;;;;;;;1.98;0.90;;;18.60;75.40;;;;;;2519486;55;20989;-69
2023/09/02 05:38:54;;;;;;;2.22;0.90;;;18.60;75.60;;;;;;2520960;55;21034;-70
2023/09/02 05:41:24;;;;;;;2.17;0.70;;;18.60;75.60;;;;;;2521536;55;20934;-69
2023/09/02 05:43:50;;;;;;;2.83;1.17;;;18.60;75.70;;;;;;2521899;55;20938;-70
2023/09/02 05:46:18;;;;;;;2.70;0.85;;;18.60;75.70;;;;;;2516496;54;20995;-70
2023/09/02 05:48:45;;;;;;;2.85;1.25;;;18.60;75.70;;;;;;2287013;55;21010;-69
2023/09/02 05:51:12;;;;;;;3.17;0.80;;;18.60;75.70;;;;;;2288473;56;21866;-70
2023/09/02 05:53:38;;;;;;;2.40;1.00;;;18.60;75.80;;;;;;2522305;55;21002;-67
2023/09/02 05:56:04;;;;;;;4.40;1.10;;;18.60;75.90;;;;;;2287937;55;20974;-70
2023/09/02 05:58:31;;;;;;;1.62;0.77;;;18.60;76.00;;;;;;2521026;55;21479;-70
2023/09/02 06:01:05;;;;;;;4.25;1.00;;;18.60;76.10;;;;;;2521787;55;21013;-67
2023/09/02 06:03:33;;;;;;;3.35;1.20;;;18.70;76.00;;;;;;2287732;55;21090;-69
2023/09/02 06:05:59;;;;;;;2.03;0.90;;;18.70;76.30;;;;;;2521732;55;20926;-70
2023/09/02 06:08:27;;;;;;;2.70;1.20;;;18.70;76.30;;;;;;2519127;54;20992;-69
2023/09/02 06:10:58;;;;;;;2.00;0.90;;;18.70;76.40;;;;;;2491455;55;20935;-70
2023/09/02 06:13:30;;;;;;;2.12;0.85;;;18.70;76.40;;;;;;2287348;55;21804;-69
2023/09/02 06:16:00;;;;;;;2.67;1.15;;;18.80;76.60;;;;;;2520917;55;21014;-70
2023/09/02 06:18:27;;;;;;;2.33;1.12;;;18.80;76.80;;;;;;2521454;55;20938;-70
2023/09/02 06:20:53;;;;;;;2.78;1.23;;;18.80;76.90;;;;;;2520984;54;21387;-70
2023/09/02 06:23:20;;;;;;;2.58;1.25;;;18.80;77.00;;;;;;2490253;55;20973;-70
2023/09/02 06:25:58;;;;;;;2.00;0.90;;;18.90;77.20;;;;;;2287288;55;21451;-71
2023/09/02 06:28:25;;;;;;;3.08;1.33;;;19.00;76.90;;;;;;2521054;55;21018;-69
2023/09/02 06:30:55;;;;;;;3.75;1.20;;;19.00;77.50;;;;;;2287771;55;21066;-70
2023/09/02 06:33:22;;;;;;;3.03;1.37;;;19.00;77.50;;;;;;2286671;55;21042;-70
2023/09/02 06:35:49;;;;;;;2.83;1.40;;;19.10;77.80;;;;;;2518459;55;21006;-70
2023/09/02 06:38:17;;;;;;;3.70;1.17;;;19.10;77.90;;;;;;2516343;54;21508;-70
2023/09/02 06:40:44;;;;;;;2.20;1.08;;;19.20;78.20;;;;;;2520351;55;21491;-70
2023/09/02 06:43:11;;;;;;;3.87;0.95;;;19.30;78.40;;;;;;2286793;56;21046;-70
2023/09/02 06:45:38;;;;;;;3.10;0.90;;;19.30;78.50;;;;;;2521579;55;20957;-67
2023/09/02 06:48:05;;;;;;;2.65;1.10;;;19.40;78.80;;;;;;2522072;55;20962;-70
2023/09/02 06:50:31;;;;;;;2.58;1.00;;;19.50;79.00;;;;;;2287633;55;20942;-70
2023/09/02 06:52:58;;;;;;;2.70;1.10;;;19.60;79.10;;;;;;2265067;56;20922;-71
2023/09/02 06:55:27;;;;;;;2.08;0.98;;;19.60;79.30;;;;;;2522217;55;20906;-70
2023/09/02 06:57:53;;;;;;;2.95;1.30;;;19.70;79.40;;;;;;2521551;55;21455;-70
2023/09/02 07:00:22;;;;;;;2.80;1.37;;;19.80;79.60;;;;;;2521883;55;21155;-69
2023/09/02 07:02:49;;;;;;;2.20;1.10;;;19.90;79.80;;;;;;2287431;55;20970;-70
2023/09/02 07:05:15;;;;;;;2.25;1.08;;;20.00;79.80;;;;;;2286768;55;20969;-73
2023/09/02 07:07:41;;;;;;;2.45;1.08;;;20.10;79.90;;;;;;2287010;55;20922;-72
2023/09/02 07:10:09;;;;;;;2.45;0.90;;;20.20;80.00;;;;;;2287252;56;20957;-71
2023/09/02 07:12:35;;;;;;;1.87;0.90;;;20.30;80.00;;;;;;2516290;54;21000;-72
2023/09/02 07:15:01;;;;;;;3.05;1.12;;;20.40;80.10;;;;;;2520631;55;21757;-72
2023/09/02 07:17:28;;;;;;;2.97;1.27;;;20.40;80.10;;;;;;2522228;55;20939;-69
2023/09/02 07:19:55;;;;;;;3.33;1.20;;;20.50;80.10;;;;;;2521795;55;20978;-73
2023/09/02 07:22:22;;;;;;;2.90;1.30;;;20.60;80.10;;;;;;2521663;55;20926;-72
2023/09/02 07:24:49;;;;;;;4.72;1.30;;;20.70;80.10;;;;;;2521853;55;21006;-72
2023/09/02 07:27:15;;;;;;;2.40;1.08;;;20.80;80.20;;;;;;2522452;55;20929;-74
2023/09/02 07:29:42;;;;;;;3.67;1.12;;;20.80;80.20;;;;;;2451358;55;20947;-72
2023/09/02 07:32:08;;;;;;;2.60;1.10;;;20.90;80.20;;;;;;2474538;55;21042;-72
2023/09/02 07:34:38;;;;;;;2.50;1.20;;;21.00;80.30;;;;;;2256722;56;21030;-72
2023/09/02 07:37:05;;;;;;;2.70;1.10;;;21.10;80.30;;;;;;2256944;56;21462;-70
2023/09/02 07:39:31;;;;;;;2.95;1.20;;;21.20;80.40;;;;;;2484240;55;21014;-71
2023/09/02 07:41:57;;;;;;;3.33;1.20;;;21.20;80.30;;;;;;2256395;56;20968;-72
2023/09/02 07:44:24;;;;;;;2.30;1.10;;;21.30;80.40;;;;;;2484150;55;21439;-72
2023/09/02 07:46:51;;;;;;;2.87;1.10;;;21.40;80.50;;;;;;2483966;55;22116;-71
2023/09/02 07:49:19;;;;;;;2.78;1.20;;;21.50;80.50;;;;;;2483826;55;20977;-73
2023/09/02 07:51:45;;;;;;;2.42;1.10;;;21.60;80.70;;;;;;2483921;55;21440;-72
2023/09/02 07:54:14;;;;;;;1.95;0.90;;;21.60;80.60;;;;;;2484902;55;21710;-71
2023/09/02 07:56:41;;;;;;;2.55;1.23;;;21.70;80.50;;;;;;2256495;56;20925;-70
2023/09/02 07:59:08;;;;;;;2.35;1.17;;;21.80;80.50;;;;;;2484637;55;21007;-70
2023/09/02 08:01:34;;;;;;;3.12;1.27;;;21.90;80.50;;;;;;2256727;56;22012;-73
2023/09/02 08:04:01;;;;;;;2.35;1.05;;;21.90;80.40;;;;;;2484036;55;21002;-73
2023/09/02 08:06:28;;;;;;;2.05;0.90;;;22.00;80.50;;;;;;2484538;55;21046;-71
2023/09/02 08:08:55;;;;;;;2.55;1.20;;;22.10;80.50;;;;;;2484051;55;20977;-70
2023/09/02 08:11:21;;;;;;;3.35;1.30;;;22.20;80.50;;;;;;2484254;55;21006;-72
2023/09/02 08:13:49;;;;;;;4.00;1.25;;;22.20;80.40;;;;;;2483664;55;21822;-71
2023/09/02 08:16:16;;;;;;;2.47;1.20;;;22.30;80.40;;;;;;2256929;56;21522;-71
2023/09/02 08:18:43;;;;;;;2.40;1.17;;;22.40;80.50;;;;;;2258556;56;20978;-72
2023/09/02 08:21:10;;;;;;;5.30;1.30;;;22.40;80.30;;;;;;2233133;56;21035;-72
2023/09/02 08:23:38;;;;;;;3.00;1.50;;;22.50;80.40;;;;;;2506195;55;21389;-72
2023/09/02 08:26:13;;;;;;;2.72;1.20;;;22.60;80.50;;;;;;2478653;55;20949;-73
2023/09/02 08:28:42;;;;;;;2.90;1.27;;;22.70;80.10;;;;;;2484352;55;20943;-71
2023/09/02 08:31:11;;;;;;;4.10;1.35;;;22.70;80.70;;;;;;2483953;55;20979;-72
2023/09/02 08:33:37;;;;;;;2.72;1.33;;;22.80;80.80;;;;;;2484077;55;21006;-71
2023/09/02 08:36:04;;;;;;;3.22;1.33;;;22.90;80.90;;;;;;2256390;56;20973;-74
2023/09/02 08:38:34;;;;;;;3.10;1.50;;;23.00;81.00;;;;;;2481417;55;21723;-73
2023/09/02 08:41:01;;;;;;;3.15;1.35;;;23.10;80.80;;;;;;2231394;56;21787;-71
2023/09/02 08:43:28;;;;;;;2.78;1.40;;;23.10;81.10;;;;;;2256417;56;20994;-73
2023/09/02 08:45:54;;;;;;;3.33;1.50;;;23.20;81.10;;;;;;2258526;55;21904;-70
2023/09/02 08:48:23;;;;;;;2.45;1.17;;;23.30;81.20;;;;;;2496470;55;20942;-69
2023/09/02 08:50:53;;;;;;;2.20;1.20;;;23.30;80.90;;;;;;2257321;56;21050;-69
2023/09/02 08:53:20;;;;;;;2.97;1.17;;;23.40;81.20;;;;;;2491671;55;21038;-73
2023/09/02 08:55:47;;;;;;;2.30;1.10;;;23.50;81.30;;;;;;2484691;55;21007;-68
2023/09/02 08:58:14;;;;;;;2.47;1.12;;;23.60;81.20;;;;;;2484858;55;21018;-68
2023/09/02 09:00:41;;;;;;;2.90;1.10;;;23.70;81.40;;;;;;2261955;55;21043;-69
2023/09/02 09:03:11;;;;;;;1.90;0.93;;;23.80;81.40;;;;;;2242354;56;21479;-68
2023/09/02 09:05:39;;;;;;;6.30;1.40;;;23.90;81.30;;;;;;2485732;55;20951;-69
2023/09/02 09:08:06;;;;;;;3.33;1.50;;;24.00;81.20;;;;;;2514580;55;20922;-71
2023/09/02 09:10:34;;;;;;;2.78;1.40;;;24.00;81.20;;;;;;2269422;56;21487;-69
2023/09/02 09:13:02;;;;;;;4.40;1.45;;;24.10;81.20;;;;;;2490861;55;21045;-70
2023/09/02 09:15:29;;;;;;;2.67;1.27;;;24.20;81.20;;;;;;2255769;56;20974;-69
2023/09/02 09:17:55;;;;;;;2.85;1.30;;;24.20;81.20;;;;;;2484635;55;20990;-69
2023/09/02 09:20:24;;;;;;;2.35;1.12;;;24.40;81.30;;;;;;2257293;56;20962;-72
2023/09/02 09:22:52;;;;;;;3.53;1.83;;;24.40;81.20;;;;;;2282447;56;21023;-70
2023/09/02 09:25:19;;;;;;;3.15;1.60;;;24.50;81.10;;;;;;2516171;54;20916;-71
2023/09/02 09:27:48;;;;;;;2.85;1.50;;;24.60;81.00;;;;;;2282635;56;21687;-73
2023/09/02 09:30:30;;;;;;;4.40;1.52;;;24.70;80.70;;;;;;2282871;55;20982;-71
2023/09/02 09:32:57;;;;;;;2.40;1.20;;;24.70;79.40;;;;;;2515191;54;21551;-71
2023/09/02 09:35:27;;;;;;;2.67;1.23;;;24.80;80.70;;;;;;2516638;54;20977;-72
2023/09/02 09:37:54;;;;;;;2.50;1.10;;;24.90;80.90;;;;;;2282599;56;21016;-72
2023/09/02 09:40:34;;;;;;;4.37;1.80;;;25.00;80.80;;;;;;2258077;56;21058;-70
2023/09/02 09:43:01;;;;;;;2.10;1.08;;;25.10;79.90;;;;;;2484114;55;20962;-74
2023/09/02 09:45:28;;;;;;;3.72;1.20;;;25.10;80.90;;;;;;2484391;55;21001;-70
2023/09/02 09:48:19;;;;;;;2.17;1.00;;;25.20;80.80;;;;;;2484415;55;20962;-72
2023/09/02 09:50:45;;;;;;;2.08;1.00;;;25.20;80.20;;;;;;2484853;55;21028;-70
2023/09/02 09:53:11;;;;;;;2.60;1.20;;;25.40;80.80;;;;;;2257265;56;21874;-70
2023/09/02 09:55:38;;;;;;;3.42;1.23;;;25.40;81.30;;;;;;2484156;55;20990;-68
2023/09/02 09:58:05;;;;;;;3.83;1.08;;;25.50;80.60;;;;;;2484483;55;21851;-70
2023/09/02 10:00:31;;;;;;;2.75;1.33;;;25.60;80.10;;;;;;2262345;56;21061;-70
2023/09/02 10:02:58;;;;;;;2.35;1.00;;;25.60;79.70;;;;;;2256275;56;20970;-70
2023/09/02 10:05:31;;;;;;;3.58;1.10;;;25.70;79.70;;;;;;2476160;55;21418;-70
2023/09/02 10:08:04;;;;;;;2.80;1.27;;;25.80;78.60;;;;;;2256693;56;21121;-70
2023/09/02 10:10:35;;;;;;;2.30;1.10;;;25.90;78.50;;;;;;2485060;55;21517;-71
2023/09/02 10:13:02;;;;;;;3.08;0.98;;;26.00;79.10;;;;;;2254567;56;21859;-70
2023/09/02 10:15:30;;;;;;;2.62;0.93;;;26.00;79.70;;;;;;2490246;55;20912;-70
2023/09/02 10:17:58;;;;;;;2.95;1.20;;;26.10;79.70;;;;;;2486878;55;21009;-68
2023/09/02 10:20:29;;;;;;;2.17;1.20;;;26.20;79.50;;;;;;2265800;56;21505;-68
2023/09/02 10:23:07;;;;;;;2.30;1.10;;;26.30;78.90;;;;;;2253795;56;20991;-70
2023/09/02 10:26:32;;;;;;;2.42;1.10;;;26.30;78.50;;;;;;2243230;56;20938;-68
2023/09/02 10:29:00;;;;;;;3.78;1.20;;;26.40;77.10;;;;;;2504215;55;21527;-68
2023/09/02 10:31:35;;;;;;;1.98;0.85;;;26.50;79.30;;;;;;2493007;55;21037;-68
2023/09/02 10:34:39;;;;;;;1.92;0.80;;;26.60;78.80;;;;;;2478725;55;21021;-70
2023/09/02 10:37:07;;;;;;;2.10;1.02;;;26.70;76.90;;;;;;2257739;56;21530;-69
2023/09/02 10:39:52;;;;;;;2.28;1.05;;;26.80;79.30;;;;;;2258047;56;21081;-71
2023/09/02 10:42:18;;;;;;;2.87;1.05;;;26.90;77.40;;;;;;2485273;55;21018;-69
2023/09/02 10:44:47;;;;;;;2.70;1.05;;;26.90;79.00;;;;;;2255794;56;20958;-71
2023/09/02 10:47:16;;;;;;;2.10;0.90;;;27.00;78.90;;;;;;2477311;55;21009;-69
2023/09/02 10:49:42;;;;;;;2.28;1.17;;;27.10;78.70;;;;;;2257175;56;21009;-69
2023/09/02 10:52:10;;;;;;;3.00;1.20;;;27.20;79.20;;;;;;2257790;56;20965;-70
2023/09/02 10:55:01;;;;;;;2.40;1.00;;;27.30;78.60;;;;;;2485199;55;21085;-68
2023/09/02 10:57:30;;;;;;;2.42;1.10;;;27.30;76.30;;;;;;2485218;55;21005;-68
2023/09/02 11:00:19;;;;;;;1.83;0.80;;;27.40;78.50;;;;;;2485171;55;21747;-68
2023/09/02 11:02:53;;;;;;;1.77;1.00;;;27.50;76.80;;;;;;2256737;56;20977;-69
2023/09/02 11:05:20;;;;;;;2.33;0.90;;;27.50;77.50;;;;;;2258247;56;20936;-70
2023/09/02 11:07:48;;;;;;;2.30;1.10;;;27.60;78.10;;;;;;2257345;56;20980;-69
2023/09/02 11:10:17;;;;;;;2.65;1.00;;;27.70;78.00;;;;;;2485307;55;20957;-69
2023/09/02 11:13:04;;;;;;;2.50;1.05;;;27.80;78.00;;;;;;2257398;56;20960;-72
2023/09/02 11:15:34;;;;;;;2.60;1.40;;;27.90;76.00;;;;;;2484175;55;20925;-73
2023/09/02 11:18:25;;;;;;;1.98;1.08;;;28.00;78.00;;;;;;2483422;55;20993;-69
2023/09/02 11:20:52;;;;;;;2.30;0.97;;;28.10;75.70;;;;;;2255113;56;21017;-73
2023/09/02 11:23:23;;;;;;;2.00;0.90;;;28.20;78.20;;;;;;2477904;55;21257;-68
2023/09/02 11:26:00;;;;;;;;;;;28.20;77.10;;;;;;2260255;56;21049;-71
2023/09/02 11:28:28;;;;;;;3.00;1.05;;;28.30;76.20;;;;;;2258556;56;20062;-69
2023/09/02 11:33:33;;;;;;;2.85;1.10;;;28.50;78.10;;;;;;2228172;57;21466;-69
2023/09/02 11:36:07;;;;;;;2.67;1.05;;;28.60;75.70;;;;;;2505545;55;20974;-69
2023/09/02 11:38:34;;;;;;;2.00;1.00;;;28.70;76.40;;;;;;2287557;56;20945;-69
2023/09/02 11:41:01;;;;;;;2.33;1.00;;;28.70;77.50;;;;;;2287493;56;20943;-69
2023/09/02 11:43:31;;;;;;;2.05;1.00;;;28.80;77.30;;;;;;2288170;56;21782;-68
2023/09/02 11:45:58;;;;;;;2.83;1.10;;;28.80;76.30;;;;;;2521152;55;21829;-67
2023/09/02 11:48:28;;;;;;;2.35;1.10;;;28.90;76.80;;;;;;2522577;55;20982;-69
2023/09/02 11:50:58;;;;;;;2.50;1.20;;;29.00;76.00;;;;;;2287399;56;21475;-69
2023/09/02 11:53:28;;;;;;;2.08;1.00;;;29.00;76.50;;;;;;2288388;55;20958;-69
2023/09/02 11:55:56;;;;;;;2.78;1.27;;;29.00;76.30;;;;;;2289372;55;21004;-70
2023/09/02 11:58:22;;;;;;;2.45;1.20;;;29.10;76.20;;;;;;2284151;55;20997;-72
2023/09/02 12:00:49;;;;;;;2.90;1.10;;;29.20;75.80;;;;;;2286749;56;20980;-69
2023/09/02 12:03:27;;;;;;;2.33;1.17;;;29.20;75.50;;;;;;2287694;56;21894;-69
2023/09/02 12:06:00;;;;;;;2.40;1.02;;;29.30;73.50;;;;;;2287016;55;20962;-69
2023/09/02 12:08:29;;;;;;;2.80;1.33;;;29.30;74.50;;;;;;2287708;56;20970;-69
2023/09/02 12:10:55;;;;;;;2.90;1.27;;;29.30;74.90;;;;;;2287415;56;20974;-70
2023/09/02 12:13:22;;;;;;;3.92;1.10;;;29.40;74.50;;;;;;2287979;55;20994;-68
2023/09/02 12:15:49;;;;;;;3.03;1.30;;;29.40;74.20;;;;;;2507008;55;20986;-69
2023/09/02 12:18:16;;;;;;;2.78;1.08;;;29.50;74.30;;;;;;2271657;55;21014;-69
2023/09/02 12:20:43;;;;;;;3.72;1.40;;;29.50;74.40;;;;;;2287196;55;21014;-71
2023/09/02 12:23:09;;;;;;;2.65;1.10;;;29.50;74.50;;;;;;2287741;55;20947;-69
2023/09/02 12:25:36;;;;;;;3.03;1.10;;;29.60;74.40;;;;;;2288319;55;20927;-69
2023/09/02 12:28:13;;;;;;;2.40;1.12;;;29.60;74.30;;;;;;2522383;55;20939;-69
2023/09/02 12:30:39;;;;;;;2.33;1.10;;;29.70;72.10;;;;;;2522434;55;21051;-72
2023/09/02 12:33:09;;;;;;;2.00;0.90;;;29.70;73.70;;;;;;2521908;55;20973;-71
2023/09/02 12:35:35;;;;;;;3.00;1.10;;;29.70;72.60;;;;;;2288032;55;21014;-69
2023/09/02 12:38:06;;;;;;;2.67;1.00;;;29.70;73.50;;;;;;2287733;55;21055;-70
2023/09/02 12:40:33;;;;;;;2.33;1.00;;;29.80;72.40;;;;;;2265721;56;21008;-68
2023/09/02 12:43:00;;;;;;;2.80;0.98;;;29.80;73.10;;;;;;2287725;55;20974;-70
2023/09/02 12:45:30;;;;;;;2.15;1.00;;;29.80;73.10;;;;;;2287811;55;20946;-69
2023/09/02 12:47:58;;;;;;;1.70;0.80;;;29.90;72.30;;;;;;2521080;55;20954;-69
2023/09/02 12:50:25;;;;;;;1.95;0.93;;;29.90;72.90;;;;;;2522589;55;21669;-68
2023/09/02 12:53:07;;;;;;;2.03;0.82;;;29.90;72.80;;;;;;2287746;55;20953;-69
2023/09/02 12:55:39;;;;;;;5.35;1.23;;;30.00;70.20;;;;;;2522826;55;21470;-68
2023/09/02 12:58:05;;;;;;;;;;;30.10;71.50;;;;;;2261170;56;21015;-70
2023/09/02 13:00:32;;;;;;;1.80;0.88;;;30.10;71.30;;;;;;2505471;55;20584;-70
2023/09/02 13:02:58;;;;;;;2.20;1.00;;;30.10;73.20;;;;;;2521673;55;21455;-72